Time;durP1;ratioP1;P1;durP2;ratioP2;P2;SDS_P1;SDS_P2;PMS_P1;PMS_P2;Temp;Humidity;BMP_temperature;BMP_pressure;BME280_temperature;BME280_humidity;BME280_pressure;Samples;Min_cycle;Max_cycle;Signal;HPM_P1;HPM_P2
2021/01/25 00:01:54;;;;;;;;;;;23.50;35.60;;;;;;1535722;77;712;-58
2021/01/25 00:03:55;;;;;;;;;;;23.50;35.60;;;;;;1544427;77;710;-57
2021/01/25 00:05:57;;;;;;;;;;;23.60;35.60;;;;;;1537363;77;758;-57
2021/01/25 00:07:59;;;;;;;;;;;23.50;35.60;;;;;;1536399;75;1128;-57
2021/01/25 00:10:01;;;;;;;;;;;23.50;35.60;;;;;;1543621;77;802;-60
2021/01/25 00:12:03;;;;;;;;;;;23.50;35.70;;;;;;1534636;76;1978;-59
2021/01/25 00:14:05;;;;;;;;;;;23.50;35.70;;;;;;1551070;75;691;-60
2021/01/25 00:16:07;;;;;;;;;;;23.60;35.70;;;;;;1548179;76;696;-59
2021/01/25 00:18:09;;;;;;;;;;;23.50;35.70;;;;;;1505093;77;1198;-59
2021/01/25 00:20:12;;;;;;;;;;;23.50;35.70;;;;;;1551096;75;723;-60
2021/01/25 00:22:13;;;;;;;;;;;23.50;35.70;;;;;;1549901;75;1069;-59
2021/01/25 00:24:15;;;;;;;;;;;23.60;35.70;;;;;;1502727;77;716;-59
2021/01/25 00:26:17;;;;;;;;;;;23.50;35.70;;;;;;1556309;76;728;-59
2021/01/25 00:28:19;;;;;;;;;;;23.60;35.70;;;;;;1507960;77;1153;-59
2021/01/25 00:30:21;;;;;;;;;;;23.50;35.70;;;;;;1543545;75;705;-58
2021/01/25 00:32:23;;;;;;;;;;;23.50;35.70;;;;;;1549209;75;1911;-58
2021/01/25 00:34:25;;;;;;;;;;;23.50;35.70;;;;;;1545690;75;695;-58
2021/01/25 00:36:27;;;;;;;;;;;23.50;35.80;;;;;;1509303;77;664;-59
2021/01/25 00:38:29;;;;;;;;;;;23.50;35.70;;;;;;1556343;76;1152;-59
2021/01/25 00:40:31;;;;;;;;;;;23.50;35.80;;;;;;1542102;75;648;-57
2021/01/25 00:42:35;;;;;;;;;;;23.50;35.70;;;;;;1527332;77;765;-59
2021/01/25 00:44:37;;;;;;;;;;;23.50;35.70;;;;;;1500690;77;894;-59
2021/01/25 00:46:39;;;;;;;;;;;23.50;35.70;;;;;;1548382;75;699;-59
2021/01/25 00:48:41;;;;;;;;;;;23.60;35.80;;;;;;1548103;75;1146;-59
2021/01/25 00:50:43;;;;;;;;;;;23.50;35.80;;;;;;1548199;75;709;-58
2021/01/25 00:52:44;;;;;;;;;;;23.50;35.90;;;;;;1546929;75;1934;-58
2021/01/25 00:54:46;;;;;;;;;;;23.50;35.90;;;;;;1520286;76;732;-58
2021/01/25 00:56:49;;;;;;;;;;;23.50;36.00;;;;;;1542755;75;741;-58
2021/01/25 00:58:51;;;;;;;;;;;23.50;36.10;;;;;;1541408;75;1112;-59
2021/01/25 01:00:52;;;;;;;;;;;23.50;36.10;;;;;;1507435;77;737;-60
2021/01/25 01:02:54;;;;;;;;;;;23.50;36.00;;;;;;1544761;75;909;-59
2021/01/25 01:04:56;;;;;;;;;;;23.50;36.00;;;;;;1550753;75;763;-59
2021/01/25 01:06:58;;;;;;;;;;;23.50;36.00;;;;;;1553154;75;796;-61
2021/01/25 01:09:00;;;;;;;;;;;23.50;35.90;;;;;;1503814;77;1147;-61
2021/01/25 01:11:02;;;;;;;;;;;23.60;35.80;;;;;;1548090;75;744;-58
2021/01/25 01:13:04;;;;;;;;;;;23.50;35.70;;;;;;1549495;75;1942;-60
2021/01/25 01:15:07;;;;;;;;;;;23.60;35.80;;;;;;1546169;75;671;-60
2021/01/25 01:17:09;;;;;;;;;;;23.60;35.70;;;;;;1551891;75;1174;-58
2021/01/25 01:19:11;;;;;;;;;;;23.50;35.70;;;;;;1532483;76;787;-58
2021/01/25 01:21:13;;;;;;;;;;;23.60;35.70;;;;;;1510856;77;735;-58
2021/01/25 01:23:15;;;;;;;;;;;23.60;35.70;;;;;;1516398;77;771;-60
2021/01/25 01:25:17;;;;;;;;;;;23.50;35.60;;;;;;1502807;77;767;-60
2021/01/25 01:27:19;;;;;;;;;;;23.50;35.60;;;;;;1503679;77;1159;-60
2021/01/25 01:29:20;;;;;;;;;;;23.60;35.60;;;;;;1516140;77;717;-61
2021/01/25 01:31:22;;;;;;;;;;;23.60;35.50;;;;;;1511536;76;741;-60
2021/01/25 01:33:24;;;;;;;;;;;23.60;35.50;;;;;;1511177;77;1937;-60
2021/01/25 01:35:26;;;;;;;;;;;23.60;35.50;;;;;;1511778;77;729;-60
2021/01/25 01:37:28;;;;;;;;;;;23.60;35.50;;;;;;1508290;77;1132;-58
2021/01/25 01:39:30;;;;;;;;;;;23.60;35.50;;;;;;1518561;77;738;-59
2021/01/25 01:41:35;;;;;;;;;;;23.60;35.50;;;;;;1518490;76;738;-59
2021/01/25 01:43:37;;;;;;;;;;;23.60;35.50;;;;;;1511633;77;769;-58
2021/01/25 01:45:39;;;;;;;;;;;23.60;35.50;;;;;;1535610;76;610;-57
2021/01/25 01:47:42;;;;;;;;;;;23.60;35.50;;;;;;1540238;75;1103;-58
2021/01/25 01:49:44;;;;;;;;;;;23.50;35.50;;;;;;1547462;75;766;-58
2021/01/25 01:51:45;;;;;;;;;;;23.60;35.50;;;;;;1548138;77;1066;-58
2021/01/25 01:53:47;;;;;;;;;;;23.60;35.50;;;;;;1561471;75;1945;-59
2021/01/25 01:55:49;;;;;;;;;;;23.50;35.50;;;;;;1543791;77;683;-57
2021/01/25 01:57:51;;;;;;;;;;;23.50;35.50;;;;;;1542754;75;1119;-59
2021/01/25 01:59:53;;;;;;;;;;;23.50;35.70;;;;;;1554791;75;706;-57
2021/01/25 02:01:55;;;;;;;;;;;23.60;35.70;;;;;;1511446;78;703;-59
2021/01/25 02:03:57;;;;;;;;;;;23.50;35.80;;;;;;1518546;77;681;-59
2021/01/25 02:05:59;;;;;;;;;;;23.50;35.70;;;;;;1517580;77;721;-59
2021/01/25 02:08:01;;;;;;;;;;;23.50;35.70;;;;;;1547146;75;1147;-59
2021/01/25 02:10:03;;;;;;;;;;;23.50;35.80;;;;;;1547962;77;855;-60
2021/01/25 02:12:05;;;;;;;;;;;23.50;35.70;;;;;;1547813;77;951;-59
2021/01/25 02:14:07;;;;;;;;;;;23.60;35.60;;;;;;1542102;77;1947;-58
2021/01/25 02:16:09;;;;;;;;;;;23.60;35.50;;;;;;1544956;75;820;-58
2021/01/25 02:18:11;;;;;;;;;;;23.60;35.60;;;;;;1544148;75;1220;-58
2021/01/25 02:20:33;;;;;;;;;;;23.60;35.60;;;;;;1545577;77;742;-58
2021/01/25 02:22:36;;;;;;;;;;;23.60;35.50;;;;;;1553410;75;637;-58
2021/01/25 02:24:40;;;;;;;;;;;23.60;35.50;;;;;;1546769;76;757;-59
2021/01/25 02:26:46;;;;;;;;;;;23.60;35.50;;;;;;1552277;75;769;-60
2021/01/25 02:28:48;;;;;;;;;;;23.60;35.40;;;;;;1505559;78;1109;-58
2021/01/25 02:30:50;;;;;;;;;;;23.60;35.40;;;;;;1499415;78;634;-57
2021/01/25 02:32:51;;;;;;;;;;;23.60;35.30;;;;;;1548149;75;1951;-60
2021/01/25 02:34:54;;;;;;;;;;;23.70;35.50;;;;;;1546089;75;782;-59
2021/01/25 02:36:56;;;;;;;;;;;23.60;35.40;;;;;;1512578;78;864;-59
2021/01/25 02:38:58;;;;;;;;;;;23.60;35.50;;;;;;1545832;75;1162;-59
2021/01/25 02:41:00;;;;;;;;;;;23.60;35.50;;;;;;1547394;76;783;-61
2021/01/25 02:43:02;;;;;;;;;;;23.60;35.40;;;;;;1547839;76;805;-59
2021/01/25 02:45:04;;;;;;;;;;;23.60;35.50;;;;;;1550453;75;685;-58
2021/01/25 02:47:06;;;;;;;;;;;23.60;35.50;;;;;;1512519;78;1128;-59
2021/01/25 02:49:08;;;;;;;;;;;23.60;35.50;;;;;;1528874;77;777;-59
2021/01/25 02:51:10;;;;;;;;;;;23.60;35.40;;;;;;1506650;78;860;-58
2021/01/25 02:53:11;;;;;;;;;;;23.60;35.40;;;;;;1551232;76;1923;-59
2021/01/25 02:55:13;;;;;;;;;;;23.60;35.40;;;;;;1553911;75;736;-59
2021/01/25 02:57:15;;;;;;;;;;;23.50;35.40;;;;;;1560491;75;1158;-58
2021/01/25 02:59:17;;;;;;;;;;;23.50;35.50;;;;;;1550256;75;715;-57
2021/01/25 03:01:19;;;;;;;;;;;23.60;35.50;;;;;;1546191;75;715;-59
2021/01/25 03:03:21;;;;;;;;;;;23.60;35.50;;;;;;1547435;75;670;-59
2021/01/25 03:05:23;;;;;;;;;;;23.60;35.40;;;;;;1555208;75;693;-59
2021/01/25 03:07:25;;;;;;;;;;;23.60;35.40;;;;;;1541057;76;1080;-59
2021/01/25 03:09:27;;;;;;;;;;;23.60;35.30;;;;;;1534938;76;697;-59
2021/01/25 03:11:28;;;;;;;;;;;23.70;35.40;;;;;;1549199;76;680;-59
2021/01/25 03:13:30;;;;;;;;;;;23.60;35.20;;;;;;1556813;75;1952;-59
2021/01/25 03:15:36;;;;;;;;;;;23.70;35.30;;;;;;1562057;76;619;-60
2021/01/25 03:17:37;;;;;;;;;;;23.70;35.20;;;;;;1556185;75;1153;-59
2021/01/25 03:19:39;;;;;;;;;;;23.70;35.20;;;;;;1549169;75;719;-60
2021/01/25 03:21:51;;;;;;;;;;;23.60;35.10;;;;;;1556223;75;814;-60
2021/01/25 03:23:53;;;;;;;;;;;23.70;35.20;;;;;;1522414;76;929;-60
2021/01/25 03:25:55;;;;;;;;;;;23.60;35.00;;;;;;1523438;76;721;-58
2021/01/25 03:27:56;;;;;;;;;;;23.60;35.00;;;;;;1526492;76;1153;-57
2021/01/25 03:29:58;;;;;;;;;;;23.70;35.10;;;;;;1534516;75;757;-57
2021/01/25 03:32:01;;;;;;;;;;;23.70;35.10;;;;;;1531448;76;746;-59
2021/01/25 03:34:03;;;;;;;;;;;23.60;34.90;;;;;;1538802;75;1952;-60
2021/01/25 03:36:05;;;;;;;;;;;23.60;34.90;;;;;;1547157;76;684;-59
2021/01/25 03:38:07;;;;;;;;;;;23.60;35.00;;;;;;1549734;75;1185;-61
2021/01/25 03:40:09;;;;;;;;;;;23.60;34.90;;;;;;1522276;77;686;-59
2021/01/25 03:42:11;;;;;;;;;;;23.60;34.90;;;;;;1512401;78;731;-59
2021/01/25 03:44:13;;;;;;;;;;;23.60;35.00;;;;;;1516919;77;724;-59
2021/01/25 03:46:15;;;;;;;;;;;23.60;34.90;;;;;;1518032;77;738;-57
2021/01/25 03:48:17;;;;;;;;;;;23.60;34.70;;;;;;1542617;75;1158;-58
2021/01/25 03:50:18;;;;;;;;;;;23.60;34.70;;;;;;1542135;76;775;-58
2021/01/25 03:52:20;;;;;;;;;;;23.60;34.70;;;;;;1543474;75;701;-59
2021/01/25 03:54:22;;;;;;;;;;;23.60;34.70;;;;;;1552829;75;1934;-59
2021/01/25 03:56:24;;;;;;;;;;;23.50;35.00;;;;;;1538139;75;679;-57
2021/01/25 03:58:26;;;;;;;;;;;23.50;35.20;;;;;;1536774;75;1154;-59
2021/01/25 04:00:28;;;;;;;;;;;23.40;35.20;;;;;;1499354;78;637;-59
2021/01/25 04:02:30;;;;;;;;;;;23.40;35.50;;;;;;1542526;75;762;-59
2021/01/25 04:04:32;;;;;;;;;;;23.40;35.60;;;;;;1499399;77;723;-59
2021/01/25 04:06:33;;;;;;;;;;;23.30;35.70;;;;;;1543423;75;703;-59
2021/01/25 04:08:35;;;;;;;;;;;23.30;35.80;;;;;;1527994;76;1124;-59
2021/01/25 04:10:37;;;;;;;;;;;23.20;35.80;;;;;;1547460;75;662;-59
2021/01/25 04:12:39;;;;;;;;;;;23.20;36.00;;;;;;1547370;75;651;-59
2021/01/25 04:14:41;;;;;;;;;;;23.30;36.10;;;;;;1530808;76;1929;-59
2021/01/25 04:16:43;;;;;;;;;;;23.30;36.20;;;;;;1501915;78;722;-58
2021/01/25 04:18:45;;;;;;;;;;;23.30;36.30;;;;;;1547176;75;1166;-58
2021/01/25 04:20:47;;;;;;;;;;;23.20;36.30;;;;;;1555782;75;778;-59
2021/01/25 04:22:49;;;;;;;;;;;23.20;36.30;;;;;;1553006;75;706;-59
2021/01/25 04:24:51;;;;;;;;;;;23.20;36.50;;;;;;1548980;75;723;-60
2021/01/25 04:26:52;;;;;;;;;;;23.20;36.50;;;;;;1548663;75;707;-59
2021/01/25 04:28:54;;;;;;;;;;;23.20;36.50;;;;;;1549116;75;1098;-58
2021/01/25 04:30:56;;;;;;;;;;;23.20;36.80;;;;;;1534191;76;676;-59
2021/01/25 04:32:58;;;;;;;;;;;23.30;36.90;;;;;;1528511;76;708;-59
2021/01/25 04:35:00;;;;;;;;;;;23.20;36.70;;;;;;1555523;75;1935;-58
2021/01/25 04:37:02;;;;;;;;;;;23.20;36.70;;;;;;1554615;75;1130;-59
2021/01/25 04:39:04;;;;;;;;;;;23.30;36.80;;;;;;1555812;75;784;-57
2021/01/25 04:41:06;;;;;;;;;;;23.30;36.90;;;;;;1550654;76;830;-58
2021/01/25 04:43:08;;;;;;;;;;;23.20;36.80;;;;;;1528354;76;790;-58
2021/01/25 04:45:10;;;;;;;;;;;23.30;36.90;;;;;;1527636;78;796;-59
2021/01/25 04:47:12;;;;;;;;;;;23.20;36.90;;;;;;1517169;77;1134;-58
2021/01/25 04:49:14;;;;;;;;;;;23.30;37.10;;;;;;1518794;77;724;-57
2021/01/25 04:51:16;;;;;;;;;;;23.20;37.00;;;;;;1516937;77;801;-59
2021/01/25 04:53:18;;;;;;;;;;;23.40;37.10;;;;;;1517621;77;724;-58
2021/01/25 04:55:20;;;;;;;;;;;23.30;37.10;;;;;;1515719;77;1935;-59
2021/01/25 04:57:22;;;;;;;;;;;23.30;37.10;;;;;;1519158;77;1124;-59
2021/01/25 04:59:23;;;;;;;;;;;23.30;37.10;;;;;;1517059;77;726;-58
2021/01/25 05:01:25;;;;;;;;;;;23.30;37.10;;;;;;1517856;77;679;-59
2021/01/25 05:03:28;;;;;;;;;;;23.30;37.10;;;;;;1519505;77;724;-59
2021/01/25 05:05:30;;;;;;;;;;;23.30;37.20;;;;;;1550783;75;707;-57
2021/01/25 05:07:32;;;;;;;;;;;23.40;37.20;;;;;;1513185;76;1176;-58
2021/01/25 05:09:34;;;;;;;;;;;23.40;37.10;;;;;;1547799;76;775;-59
2021/01/25 05:11:36;;;;;;;;;;;23.40;37.00;;;;;;1548888;76;727;-58
2021/01/25 05:13:38;;;;;;;;;;;23.40;37.10;;;;;;1549532;75;1939;-59
2021/01/25 05:15:40;;;;;;;;;;;23.40;37.10;;;;;;1502659;78;700;-58
2021/01/25 05:17:42;;;;;;;;;;;23.40;37.10;;;;;;1543609;75;1138;-58
2021/01/25 05:19:44;;;;;;;;;;;23.40;37.00;;;;;;1506700;78;1131;-59
2021/01/25 05:21:48;;;;;;;;;;;23.40;36.90;;;;;;1537986;76;689;-59
2021/01/25 05:23:50;;;;;;;;;;;23.40;36.90;;;;;;1538945;76;1641;-59
2021/01/25 05:25:51;;;;;;;;;;;23.40;37.10;;;;;;1538092;76;718;-58
2021/01/25 05:27:53;;;;;;;;;;;23.40;37.00;;;;;;1536611;76;1173;-60
2021/01/25 05:29:55;;;;;;;;;;;23.40;37.00;;;;;;1526657;76;899;-59
2021/01/25 05:31:57;;;;;;;;;;;23.40;37.10;;;;;;1517558;77;1148;-58
2021/01/25 05:33:59;;;;;;;;;;;23.40;37.10;;;;;;1554280;75;1930;-58
2021/01/25 05:36:01;;;;;;;;;;;23.40;37.10;;;;;;1512154;78;674;-58
2021/01/25 05:38:04;;;;;;;;;;;23.40;37.10;;;;;;1553884;75;1137;-58
2021/01/25 05:40:06;;;;;;;;;;;23.40;37.10;;;;;;1555439;76;708;-59
2021/01/25 05:42:08;;;;;;;;;;;23.40;37.10;;;;;;1528495;77;737;-60
2021/01/25 05:44:16;;;;;;;;;;;23.40;37.30;;;;;;1510414;78;803;-60
2021/01/25 05:46:19;;;;;;;;;;;23.40;37.30;;;;;;1549293;76;886;-61
2021/01/25 05:48:21;;;;;;;;;;;23.50;37.40;;;;;;1544476;75;1168;-61
2021/01/25 05:50:27;;;;;;;;;;;23.40;37.30;;;;;;1555103;75;702;-61
2021/01/25 05:52:29;;;;;;;;;;;23.40;37.30;;;;;;1551962;75;731;-62
2021/01/25 05:54:31;;;;;;;;;;;23.40;37.30;;;;;;1547841;75;1939;-61
2021/01/25 05:56:33;;;;;;;;;;;23.40;37.30;;;;;;1559514;75;778;-61
2021/01/25 05:58:35;;;;;;;;;;;23.50;37.30;;;;;;1544992;75;1162;-60
2021/01/25 06:00:37;;;;;;;;;;;23.50;37.20;;;;;;1505901;77;722;-60
2021/01/25 06:02:40;;;;;;;;;;;23.50;37.20;;;;;;1542085;75;728;-61
2021/01/25 06:04:42;;;;;;;;;;;23.50;37.20;;;;;;1528711;76;681;-59
2021/01/25 06:06:45;;;;;;;;;;;23.50;37.10;;;;;;1541783;75;782;-60
2021/01/25 06:08:52;;;;;;;;;;;23.50;37.10;;;;;;1531632;75;1844;-61
2021/01/25 06:11:04;;;;;;;;;;;23.50;37.20;;;;;;1541495;75;727;-60
2021/01/25 06:13:08;;;;;;;;;;;23.60;37.30;;;;;;1540080;75;803;-59
2021/01/25 06:15:11;;;;;;;;;;;23.50;37.30;;;;;;1534874;75;1917;-59
2021/01/25 06:17:18;;;;;;;;;;;23.50;37.20;;;;;;1539512;75;1153;-60
2021/01/25 06:19:17;;;;;;;;;;;23.50;37.10;;;;;;1544119;77;1171;-61
2021/01/25 06:21:24;;;;;;;;;;;23.50;37.30;;;;;;1550372;76;709;-61
2021/01/25 06:23:25;;;;;;;;;;;23.50;37.30;;;;;;1527885;76;776;-60
2021/01/25 06:25:27;;;;;;;;;;;23.50;37.30;;;;;;1525992;76;696;-60
2021/01/25 06:27:29;;;;;;;;;;;23.60;37.10;;;;;;1527134;76;1108;-61
2021/01/25 06:29:31;;;;;;;;;;;23.50;37.10;;;;;;1502317;78;768;-61
2021/01/25 06:31:35;;;;;;;;;;;23.50;37.10;;;;;;1504372;77;696;-60
2021/01/25 06:33:40;;;;;;;;;;;23.60;37.30;;;;;;1521881;76;1731;-60
2021/01/25 06:35:42;;;;;;;;;;;23.60;37.10;;;;;;1522207;76;1928;-61
2021/01/25 06:37:45;;;;;;;;;;;23.70;37.00;;;;;;1529978;76;1111;-60
2021/01/25 06:39:47;;;;;;;;;;;23.70;36.80;;;;;;1546560;76;1798;-60
2021/01/25 06:41:49;;;;;;;;;;;23.90;36.80;;;;;;1511328;77;726;-60
2021/01/25 06:43:51;;;;;;;;;;;23.80;36.80;;;;;;1542224;76;763;-59
2021/01/25 06:45:53;;;;;;;;;;;23.80;36.80;;;;;;1508372;77;1094;-59
2021/01/25 06:47:55;;;;;;;;;;;23.70;36.80;;;;;;1535311;76;1199;-60
2021/01/25 06:50:00;;;;;;;;;;;23.70;36.90;;;;;;1522099;76;651;-60
2021/01/25 06:52:02;;;;;;;;;;;23.60;36.90;;;;;;1508459;78;698;-60
2021/01/25 06:54:04;;;;;;;;;;;23.60;36.90;;;;;;1553675;75;766;-60
2021/01/25 06:56:06;;;;;;;;;;;23.60;37.10;;;;;;1526245;78;1926;-60
2021/01/25 06:58:09;;;;;;;;;;;23.60;37.30;;;;;;1548531;75;1188;-61
2021/01/25 07:00:12;;;;;;;;;;;23.50;37.40;;;;;;1553471;75;778;-60
2021/01/25 07:02:15;;;;;;;;;;;23.50;37.50;;;;;;1548542;76;751;-60
2021/01/25 07:04:18;;;;;;;;;;;23.50;37.80;;;;;;1506335;77;1782;-60
2021/01/25 07:06:20;;;;;;;;;;;23.50;37.80;;;;;;1547930;76;745;-61
2021/01/25 07:08:22;;;;;;;;;;;23.50;37.80;;;;;;1537258;75;1141;-61
2021/01/25 07:10:26;;;;;;;;;;;23.40;37.80;;;;;;1546513;75;771;-61
2021/01/25 07:12:28;;;;;;;;;;;23.50;37.80;;;;;;1553099;75;710;-60
2021/01/25 07:14:30;;;;;;;;;;;23.50;37.90;;;;;;1542171;75;1908;-60
2021/01/25 07:16:32;;;;;;;;;;;23.50;37.90;;;;;;1546438;75;675;-60
2021/01/25 07:18:34;;;;;;;;;;;23.50;37.80;;;;;;1539860;75;1166;-60
2021/01/25 07:20:36;;;;;;;;;;;23.50;37.90;;;;;;1545396;76;644;-60
2021/01/25 07:22:38;;;;;;;;;;;23.40;37.70;;;;;;1547382;75;659;-60
2021/01/25 07:24:40;;;;;;;;;;;23.50;37.80;;;;;;1525744;77;679;-60
2021/01/25 07:26:42;;;;;;;;;;;23.50;37.70;;;;;;1527036;76;699;-59
2021/01/25 07:28:44;;;;;;;;;;;23.50;37.70;;;;;;1528643;76;1119;-59
2021/01/25 07:30:46;;;;;;;;;;;23.60;37.70;;;;;;1503139;77;837;-57
2021/01/25 07:32:49;;;;;;;;;;;23.50;37.70;;;;;;1542533;75;841;-58
2021/01/25 07:34:50;;;;;;;;;;;23.50;37.70;;;;;;1540783;75;1915;-58
2021/01/25 07:36:52;;;;;;;;;;;23.60;37.60;;;;;;1501170;77;726;-58
2021/01/25 07:38:54;;;;;;;;;;;23.50;37.70;;;;;;1550853;76;1137;-58
2021/01/25 07:40:59;;;;;;;;;;;23.60;37.80;;;;;;1555319;76;712;-58
2021/01/25 07:43:02;;;;;;;;;;;23.50;37.70;;;;;;1545696;76;866;-60
2021/01/25 07:45:04;;;;;;;;;;;23.50;37.80;;;;;;1544958;75;1281;-59
2021/01/25 07:47:06;;;;;;;;;;;23.50;37.80;;;;;;1548030;76;1172;-60
2021/01/25 07:49:08;;;;;;;;;;;23.50;37.70;;;;;;1528422;76;846;-60
2021/01/25 07:51:13;;;;;;;;;;;23.50;37.90;;;;;;1498875;78;765;-59
2021/01/25 07:53:13;;;;;;;;;;;23.60;38.40;;;;;;1546740;76;1624;-61
2021/01/25 07:55:15;;;;;;;;;;;23.50;38.30;;;;;;1553283;75;1943;-59
2021/01/25 07:57:24;;;;;;;;;;;23.50;38.10;;;;;;1510958;77;1116;-59
2021/01/25 07:59:27;;;;;;;;;;;23.60;38.00;;;;;;1553437;75;745;-58
2021/01/25 08:01:29;;;;;;;;;;;23.60;37.90;;;;;;1548187;75;1105;-59
2021/01/25 08:03:31;;;;;;;;;;;23.60;37.90;;;;;;1528164;76;740;-60
2021/01/25 08:05:33;;;;;;;;;;;23.60;37.80;;;;;;1512449;78;775;-60
2021/01/25 08:07:35;;;;;;;;;;;23.60;37.80;;;;;;1551281;75;1142;-59
2021/01/25 08:09:38;;;;;;;;;;;23.60;37.80;;;;;;1542072;75;717;-59
2021/01/25 08:11:40;;;;;;;;;;;23.60;37.70;;;;;;1527909;76;764;-60
2021/01/25 08:13:44;;;;;;;;;;;23.60;37.60;;;;;;1549700;76;699;-59
2021/01/25 08:15:53;;;;;;;;;;;23.60;37.80;;;;;;1494639;78;1920;-59
2021/01/25 08:17:55;;;;;;;;;;;23.60;37.80;;;;;;1550165;75;1121;-60
2021/01/25 08:19:59;;;;;;;;;;;23.60;37.90;;;;;;1547633;75;737;-58
2021/01/25 08:22:04;;;;;;;;;;;23.60;37.80;;;;;;1556614;75;726;-59
2021/01/25 08:24:07;;;;;;;;;;;23.60;37.80;;;;;;1497931;78;779;-59
2021/01/25 08:26:10;;;;;;;;;;;23.60;37.80;;;;;;1546139;75;724;-59
2021/01/25 08:28:18;;;;;;;;;;;23.50;37.90;;;;;;1540126;76;1154;-59
2021/01/25 08:30:22;;;;;;;;;;;23.60;37.80;;;;;;1527848;76;710;-59
2021/01/25 08:32:25;;;;;;;;;;;23.50;37.80;;;;;;1510093;77;685;-59
2021/01/25 08:34:28;;;;;;;;;;;23.60;37.90;;;;;;1555521;75;797;-60
2021/01/25 08:36:34;;;;;;;;;;;23.60;38.00;;;;;;1552219;75;1933;-60
2021/01/25 08:38:41;;;;;;;;;;;23.60;37.80;;;;;;1526462;75;1410;-60
2021/01/25 08:40:43;;;;;;;;;;;23.70;37.70;;;;;;1507039;77;730;-59
2021/01/25 08:42:45;;;;;;;;;;;23.60;37.60;;;;;;1517474;77;739;-59
2021/01/25 08:44:48;;;;;;;;;;;23.60;37.60;;;;;;1553520;75;711;-61
2021/01/25 08:46:50;;;;;;;;;;;23.70;37.70;;;;;;1517409;76;1720;-61
2021/01/25 08:48:52;;;;;;;;;;;23.70;37.60;;;;;;1553611;75;1122;-59
2021/01/25 08:50:54;;;;;;;;;;;23.70;37.60;;;;;;1549641;75;736;-59
2021/01/25 08:53:03;;;;;;;;;;;23.60;37.50;;;;;;1519056;76;742;-58
2021/01/25 08:55:07;;;;;;;;;;;23.70;37.60;;;;;;1521283;76;1925;-59
2021/01/25 08:57:19;;;;;;;;;;;23.60;37.50;;;;;;1549544;75;1701;-59
2021/01/25 08:59:28;;;;;;;;;;;23.70;37.60;;;;;;1548602;75;1834;-59
2021/01/25 09:01:30;;;;;;;;;;;23.70;37.80;;;;;;1549007;74;698;-60
2021/01/25 09:03:32;;;;;;;;;;;23.60;37.70;;;;;;1505007;78;721;-60
2021/01/25 09:05:34;;;;;;;;;;;23.70;37.90;;;;;;1552406;75;710;-58
2021/01/25 09:07:36;;;;;;;;;;;23.70;38.00;;;;;;1548812;75;1115;-60
2021/01/25 09:09:38;;;;;;;;;;;23.80;38.20;;;;;;1549010;75;781;-60
2021/01/25 09:11:40;;;;;;;;;;;23.80;38.10;;;;;;1556957;75;735;-60
2021/01/25 09:13:41;;;;;;;;;;;23.80;38.30;;;;;;1512700;78;710;-60
2021/01/25 09:15:43;;;;;;;;;;;23.70;38.20;;;;;;1559673;75;1945;-60
2021/01/25 09:17:45;;;;;;;;;;;23.80;38.10;;;;;;1548772;75;1184;-59
2021/01/25 09:19:47;;;;;;;;;;;23.80;38.20;;;;;;1530537;76;725;-60
2021/01/25 09:21:49;;;;;;;;;;;23.80;38.00;;;;;;1536145;76;676;-58
2021/01/25 09:23:51;;;;;;;;;;;23.80;37.90;;;;;;1561628;75;577;-59
2021/01/25 09:25:53;;;;;;;;;;;23.90;38.10;;;;;;1555186;75;758;-59
2021/01/25 09:27:55;;;;;;;;;;;23.90;38.10;;;;;;1551614;75;1144;-58
2021/01/25 09:29:56;;;;;;;;;;;23.80;38.10;;;;;;1556092;75;821;-58
2021/01/25 09:31:58;;;;;;;;;;;23.80;38.10;;;;;;1560920;75;752;-58
2021/01/25 09:34:00;;;;;;;;;;;23.80;38.10;;;;;;1556457;75;723;-60
2021/01/25 09:36:02;;;;;;;;;;;23.80;38.30;;;;;;1549127;75;1933;-59
2021/01/25 09:38:04;;;;;;;;;;;23.80;38.20;;;;;;1552418;75;1155;-60
2021/01/25 09:40:06;;;;;;;;;;;23.80;38.10;;;;;;1554406;75;708;-58
2021/01/25 09:42:08;;;;;;;;;;;23.70;38.20;;;;;;1556530;75;646;-60
2021/01/25 09:44:10;;;;;;;;;;;23.80;38.10;;;;;;1556381;75;758;-61
2021/01/25 09:46:12;;;;;;;;;;;23.80;38.00;;;;;;1545581;75;704;-61
2021/01/25 09:48:14;;;;;;;;;;;23.80;37.90;;;;;;1555756;75;1090;-61
2021/01/25 09:50:16;;;;;;;;;;;23.90;37.40;;;;;;1556338;75;706;-59
2021/01/25 09:52:18;;;;;;;;;;;23.90;36.80;;;;;;1554009;75;754;-59
2021/01/25 09:54:20;;;;;;;;;;;24.00;36.50;;;;;;1555334;75;742;-60
2021/01/25 09:56:22;;;;;;;;;;;24.00;36.20;;;;;;1551396;75;1916;-61
2021/01/25 09:58:24;;;;;;;;;;;24.00;35.70;;;;;;1552497;75;1162;-60
2021/01/25 10:00:26;;;;;;;;;;;24.00;35.60;;;;;;1550841;75;768;-59
2021/01/25 10:02:28;;;;;;;;;;;23.90;35.20;;;;;;1511855;78;644;-58
2021/01/25 10:04:30;;;;;;;;;;;23.90;34.90;;;;;;1554966;75;650;-61
2021/01/25 10:06:32;;;;;;;;;;;23.90;34.50;;;;;;1549112;76;786;-59
2021/01/25 10:08:36;;;;;;;;;;;23.80;35.00;;;;;;1541816;75;1138;-59
2021/01/25 10:10:38;;;;;;;;;;;23.80;34.80;;;;;;1507218;78;672;-60
2021/01/25 10:12:40;;;;;;;;;;;23.80;35.00;;;;;;1506449;77;727;-58
2021/01/25 10:14:41;;;;;;;;;;;23.80;35.10;;;;;;1515923;77;786;-64
2021/01/25 10:16:43;;;;;;;;;;;23.80;35.50;;;;;;1513884;77;1943;-61
2021/01/25 10:18:46;;;;;;;;;;;23.80;34.90;;;;;;1516364;77;1143;-61
2021/01/25 10:20:47;;;;;;;;;;;23.80;35.00;;;;;;1518307;77;726;-60
2021/01/25 10:22:49;;;;;;;;;;;23.70;35.50;;;;;;1544824;76;722;-61
2021/01/25 10:24:51;;;;;;;;;;;23.70;35.10;;;;;;1544087;75;792;-62
2021/01/25 10:26:53;;;;;;;;;;;23.60;34.80;;;;;;1545707;75;750;-63
2021/01/25 10:28:55;;;;;;;;;;;23.70;34.70;;;;;;1539469;75;1107;-64
2021/01/25 10:30:57;;;;;;;;;;;23.70;34.90;;;;;;1547878;76;624;-63
2021/01/25 10:32:59;;;;;;;;;;;23.60;34.60;;;;;;1546625;75;701;-64
2021/01/25 10:35:01;;;;;;;;;;;23.70;34.90;;;;;;1536549;75;660;-63
2021/01/25 10:37:03;;;;;;;;;;;23.70;35.00;;;;;;1545662;75;1928;-63
2021/01/25 10:39:05;;;;;;;;;;;23.70;35.10;;;;;;1545072;75;680;-63
2021/01/25 10:41:07;;;;;;;;;;;23.70;35.00;;;;;;1536038;75;721;-65
2021/01/25 10:43:09;;;;;;;;;;;23.80;34.80;;;;;;1535326;75;658;-69
2021/01/25 10:45:11;;;;;;;;;;;23.80;34.70;;;;;;1529477;75;687;-64
2021/01/25 10:47:18;;;;;;;;;;;23.80;34.90;;;;;;1529832;75;1109;-65
2021/01/25 10:49:16;;;;;;;;;;;23.80;34.90;;;;;;1526813;75;1745;-63
2021/01/25 10:51:18;;;;;;;;;;;23.70;35.10;;;;;;1533672;75;793;-65
2021/01/25 10:53:20;;;;;;;;;;;23.70;35.30;;;;;;1536866;75;752;-64
2021/01/25 10:55:22;;;;;;;;;;;23.60;34.90;;;;;;1534722;75;738;-65
2021/01/25 10:57:24;;;;;;;;;;;23.70;35.20;;;;;;1538386;75;1942;-63
2021/01/25 10:59:25;;;;;;;;;;;23.60;34.90;;;;;;1542123;75;1115;-65
2021/01/25 11:01:27;;;;;;;;;;;23.70;35.10;;;;;;1537166;77;706;-63
2021/01/25 11:03:29;;;;;;;;;;;23.80;35.00;;;;;;1538704;77;664;-63
2021/01/25 11:05:31;;;;;;;;;;;23.80;34.80;;;;;;1537206;75;735;-63
2021/01/25 11:07:34;;;;;;;;;;;23.90;34.70;;;;;;1536304;77;1182;-64
2021/01/25 11:09:36;;;;;;;;;;;23.90;34.60;;;;;;1544518;77;714;-63
2021/01/25 11:11:37;;;;;;;;;;;23.90;34.50;;;;;;1546270;77;699;-63
2021/01/25 11:13:39;;;;;;;;;;;23.90;34.30;;;;;;1545658;75;677;-65
2021/01/25 11:15:41;;;;;;;;;;;23.90;34.30;;;;;;1518598;77;752;-67
2021/01/25 11:17:43;;;;;;;;;;;23.90;34.40;;;;;;1556605;75;1956;-67
2021/01/25 11:19:45;;;;;;;;;;;23.90;34.40;;;;;;1548828;75;789;-68
2021/01/25 11:21:47;;;;;;;;;;;23.90;34.40;;;;;;1548455;75;742;-70
2021/01/25 11:23:50;;;;;;;;;;;23.80;34.30;;;;;;1533441;76;733;-65
2021/01/25 11:25:52;;;;;;;;;;;23.80;34.40;;;;;;1531681;76;700;-63
2021/01/25 11:27:54;;;;;;;;;;;23.90;34.50;;;;;;1537762;77;1081;-63
2021/01/25 11:29:56;;;;;;;;;;;23.90;34.50;;;;;;1534510;76;779;-63
2021/01/25 11:32:01;;;;;;;;;;;23.80;34.40;;;;;;1526673;76;790;-64
2021/01/25 11:34:03;;;;;;;;;;;23.90;34.20;;;;;;1532373;76;702;-63
2021/01/25 11:36:05;;;;;;;;;;;23.80;33.90;;;;;;1535825;76;1925;-63
2021/01/25 11:38:07;;;;;;;;;;;23.80;33.70;;;;;;1528626;76;1124;-64
2021/01/25 11:40:09;;;;;;;;;;;23.80;33.60;;;;;;1530231;76;681;-66
2021/01/25 11:42:11;;;;;;;;;;;23.80;33.50;;;;;;1532657;76;743;-64
2021/01/25 11:44:12;;;;;;;;;;;23.70;33.50;;;;;;1542635;76;762;-62
2021/01/25 11:46:14;;;;;;;;;;;23.70;33.70;;;;;;1530608;76;718;-65
2021/01/25 11:48:17;;;;;;;;;;;23.70;33.60;;;;;;1529185;76;1252;-62
2021/01/25 11:50:19;;;;;;;;;;;23.70;33.50;;;;;;1537633;76;700;-63
2021/01/25 11:52:21;;;;;;;;;;;23.80;33.50;;;;;;1527754;76;752;-63
2021/01/25 11:54:23;;;;;;;;;;;23.90;33.60;;;;;;1528284;76;1087;-63
2021/01/25 11:56:25;;;;;;;;;;;23.80;33.40;;;;;;1530626;76;1930;-63
2021/01/25 11:58:26;;;;;;;;;;;23.80;33.40;;;;;;1530606;76;1110;-63
2021/01/25 12:00:28;;;;;;;;;;;23.90;33.40;;;;;;1537585;76;738;-64
2021/01/25 12:02:30;;;;;;;;;;;23.90;33.40;;;;;;1538198;76;770;-64
2021/01/25 12:04:32;;;;;;;;;;;23.90;33.40;;;;;;1536642;76;682;-65
2021/01/25 12:06:34;;;;;;;;;;;23.80;33.40;;;;;;1525632;76;719;-63
2021/01/25 12:08:36;;;;;;;;;;;23.80;33.20;;;;;;1525692;76;1105;-63
2021/01/25 12:10:39;;;;;;;;;;;23.80;33.20;;;;;;1534399;76;720;-63